sensor_id;sensor_type;location;lat;lon;timestamp;P1;durP1;ratioP1;P2;durP2;ratioP2
33347;SDS011;19707;51.158;17.124;2022-08-01T00:01:49;5.40;;;4.12;;
33347;SDS011;19707;51.158;17.124;2022-08-01T00:04:50;5.95;;;4.28;;
33347;SDS011;19707;51.158;17.124;2022-08-01T00:07:55;5.20;;;3.80;;
33347;SDS011;19707;51.158;17.124;2022-08-01T00:10:56;6.05;;;4.62;;
33347;SDS011;19707;51.158;17.124;2022-08-01T00:13:57;6.80;;;4.40;;
33347;SDS011;19707;51.158;17.124;2022-08-01T00:16:59;8.00;;;5.25;;
33347;SDS011;19707;51.158;17.124;2022-08-01T00:20:00;5.62;;;4.28;;
33347;SDS011;19707;51.158;17.124;2022-08-01T00:23:03;8.50;;;5.50;;
33347;SDS011;19707;51.158;17.124;2022-08-01T00:26:05;4.78;;;4.37;;
33347;SDS011;19707;51.158;17.124;2022-08-01T00:29:06;7.55;;;4.85;;
33347;SDS011;19707;51.158;17.124;2022-08-01T00:32:08;7.37;;;5.03;;
33347;SDS011;19707;51.158;17.124;2022-08-01T00:35:10;7.40;;;5.40;;
33347;SDS011;19707;51.158;17.124;2022-08-01T00:38:12;5.47;;;4.30;;
33347;SDS011;19707;51.158;17.124;2022-08-01T00:41:13;5.60;;;4.90;;
33347;SDS011;19707;51.158;17.124;2022-08-01T00:44:15;6.55;;;4.65;;
33347;SDS011;19707;51.158;17.124;2022-08-01T00:47:17;10.85;;;5.87;;
33347;SDS011;19707;51.158;17.124;2022-08-01T00:50:18;8.45;;;5.37;;
33347;SDS011;19707;51.158;17.124;2022-08-01T00:53:19;14.07;;;5.10;;
33347;SDS011;19707;51.158;17.124;2022-08-01T00:56:21;5.90;;;5.25;;
33347;SDS011;19707;51.158;17.124;2022-08-01T00:59:26;11.53;;;5.55;;
33347;SDS011;19707;51.158;17.124;2022-08-01T01:02:28;6.90;;;5.42;;
33347;SDS011;19707;51.158;17.124;2022-08-01T01:05:29;5.75;;;5.15;;
33347;SDS011;19707;51.158;17.124;2022-08-01T01:08:46;7.67;;;5.20;;
33347;SDS011;19707;51.158;17.124;2022-08-01T01:15:57;6.22;;;5.58;;
33347;SDS011;19707;51.158;17.124;2022-08-01T01:19:05;7.22;;;5.97;;
33347;SDS011;19707;51.158;17.124;2022-08-01T01:35:42;6.58;;;5.97;;
33347;SDS011;19707;51.158;17.124;2022-08-01T01:38:47;13.10;;;6.30;;
33347;SDS011;19707;51.158;17.124;2022-08-01T01:41:49;5.90;;;5.15;;
33347;SDS011;19707;51.158;17.124;2022-08-01T01:44:52;7.22;;;5.00;;
33347;SDS011;19707;51.158;17.124;2022-08-01T01:47:55;11.65;;;4.85;;
33347;SDS011;19707;51.158;17.124;2022-08-01T01:50:58;6.62;;;5.55;;
33347;SDS011;19707;51.158;17.124;2022-08-01T01:54:00;6.12;;;5.42;;
33347;SDS011;19707;51.158;17.124;2022-08-01T01:57:02;5.95;;;4.87;;
33347;SDS011;19707;51.158;17.124;2022-08-01T02:00:05;12.05;;;4.80;;
33347;SDS011;19707;51.158;17.124;2022-08-01T02:03:10;8.93;;;5.58;;
33347;SDS011;19707;51.158;17.124;2022-08-01T02:06:13;6.55;;;4.72;;
33347;SDS011;19707;51.158;17.124;2022-08-01T02:09:16;7.30;;;4.80;;
33347;SDS011;19707;51.158;17.124;2022-08-01T02:15:22;6.80;;;5.28;;
33347;SDS011;19707;51.158;17.124;2022-08-01T02:18:24;7.85;;;5.08;;
33347;SDS011;19707;51.158;17.124;2022-08-01T02:21:46;5.45;;;4.92;;
33347;SDS011;19707;51.158;17.124;2022-08-01T02:25:02;6.70;;;5.62;;
33347;SDS011;19707;51.158;17.124;2022-08-01T02:28:17;7.12;;;6.08;;
33347;SDS011;19707;51.158;17.124;2022-08-01T02:31:35;8.00;;;6.50;;
33347;SDS011;19707;51.158;17.124;2022-08-01T02:34:39;10.43;;;7.78;;
33347;SDS011;19707;51.158;17.124;2022-08-01T02:37:42;7.90;;;7.05;;
33347;SDS011;19707;51.158;17.124;2022-08-01T02:40:45;9.90;;;6.97;;
33347;SDS011;19707;51.158;17.124;2022-08-01T02:43:48;9.18;;;7.45;;
33347;SDS011;19707;51.158;17.124;2022-08-01T02:46:57;9.13;;;7.75;;
33347;SDS011;19707;51.158;17.124;2022-08-01T02:50:03;7.80;;;6.97;;
33347;SDS011;19707;51.158;17.124;2022-08-01T02:53:08;11.33;;;7.22;;
33347;SDS011;19707;51.158;17.124;2022-08-01T02:56:12;8.63;;;7.12;;
33347;SDS011;19707;51.158;17.124;2022-08-01T02:59:16;10.20;;;7.08;;
33347;SDS011;19707;51.158;17.124;2022-08-01T03:02:20;7.08;;;6.20;;
33347;SDS011;19707;51.158;17.124;2022-08-01T03:05:23;7.22;;;5.80;;
33347;SDS011;19707;51.158;17.124;2022-08-01T03:08:26;7.37;;;6.22;;
33347;SDS011;19707;51.158;17.124;2022-08-01T03:11:30;10.03;;;6.22;;
33347;SDS011;19707;51.158;17.124;2022-08-01T03:14:33;7.20;;;6.50;;
33347;SDS011;19707;51.158;17.124;2022-08-01T03:17:37;7.65;;;5.70;;
33347;SDS011;19707;51.158;17.124;2022-08-01T03:20:40;6.17;;;5.17;;
33347;SDS011;19707;51.158;17.124;2022-08-01T03:23:45;8.10;;;5.92;;
33347;SDS011;19707;51.158;17.124;2022-08-01T03:26:46;7.83;;;5.22;;
33347;SDS011;19707;51.158;17.124;2022-08-01T03:29:49;5.37;;;4.87;;
33347;SDS011;19707;51.158;17.124;2022-08-01T03:32:52;10.10;;;6.03;;
33347;SDS011;19707;51.158;17.124;2022-08-01T03:35:54;7.85;;;6.05;;
33347;SDS011;19707;51.158;17.124;2022-08-01T03:38:58;6.90;;;5.58;;
33347;SDS011;19707;51.158;17.124;2022-08-01T03:45:08;6.20;;;5.40;;
33347;SDS011;19707;51.158;17.124;2022-08-01T03:48:14;7.30;;;5.67;;
33347;SDS011;19707;51.158;17.124;2022-08-01T03:51:20;6.65;;;5.92;;
33347;SDS011;19707;51.158;17.124;2022-08-01T03:54:24;6.55;;;5.87;;
33347;SDS011;19707;51.158;17.124;2022-08-01T04:00:29;8.45;;;5.67;;
33347;SDS011;19707;51.158;17.124;2022-08-01T04:03:32;9.30;;;6.90;;
33347;SDS011;19707;51.158;17.124;2022-08-01T04:06:36;11.85;;;6.83;;
33347;SDS011;19707;51.158;17.124;2022-08-01T04:09:42;10.95;;;6.37;;
33347;SDS011;19707;51.158;17.124;2022-08-01T04:12:43;10.15;;;6.37;;
33347;SDS011;19707;51.158;17.124;2022-08-01T04:15:45;7.33;;;5.95;;
33347;SDS011;19707;51.158;17.124;2022-08-01T04:18:46;6.55;;;5.65;;
33347;SDS011;19707;51.158;17.124;2022-08-01T04:21:48;7.00;;;6.30;;
33347;SDS011;19707;51.158;17.124;2022-08-01T04:24:51;13.68;;;6.03;;
33347;SDS011;19707;51.158;17.124;2022-08-01T04:27:54;10.13;;;5.70;;
33347;SDS011;19707;51.158;17.124;2022-08-01T04:30:56;8.03;;;5.58;;
33347;SDS011;19707;51.158;17.124;2022-08-01T04:33:58;8.63;;;5.15;;
33347;SDS011;19707;51.158;17.124;2022-08-01T04:37:00;10.50;;;5.40;;
33347;SDS011;19707;51.158;17.124;2022-08-01T04:40:05;7.35;;;5.12;;
33347;SDS011;19707;51.158;17.124;2022-08-01T04:43:08;9.10;;;5.30;;
33347;SDS011;19707;51.158;17.124;2022-08-01T04:46:09;6.67;;;5.10;;
33347;SDS011;19707;51.158;17.124;2022-08-01T04:49:12;9.10;;;4.75;;
33347;SDS011;19707;51.158;17.124;2022-08-01T04:52:15;6.50;;;5.50;;
33347;SDS011;19707;51.158;17.124;2022-08-01T04:55:18;6.03;;;5.37;;
33347;SDS011;19707;51.158;17.124;2022-08-01T04:58:19;9.85;;;5.97;;
33347;SDS011;19707;51.158;17.124;2022-08-01T05:01:21;10.55;;;5.30;;
33347;SDS011;19707;51.158;17.124;2022-08-01T05:04:22;7.83;;;5.25;;
33347;SDS011;19707;51.158;17.124;2022-08-01T05:07:24;7.33;;;4.75;;
33347;SDS011;19707;51.158;17.124;2022-08-01T05:10:25;13.45;;;5.00;;
33347;SDS011;19707;51.158;17.124;2022-08-01T05:13:27;7.37;;;5.30;;
33347;SDS011;19707;51.158;17.124;2022-08-01T05:16:28;11.50;;;5.95;;
33347;SDS011;19707;51.158;17.124;2022-08-01T05:19:30;8.83;;;6.45;;
33347;SDS011;19707;51.158;17.124;2022-08-01T05:22:34;7.15;;;6.12;;
33347;SDS011;19707;51.158;17.124;2022-08-01T05:25:35;7.87;;;5.80;;
33347;SDS011;19707;51.158;17.124;2022-08-01T05:28:37;12.58;;;6.40;;
33347;SDS011;19707;51.158;17.124;2022-08-01T05:31:38;7.25;;;5.40;;
33347;SDS011;19707;51.158;17.124;2022-08-01T05:34:39;7.65;;;5.72;;
33347;SDS011;19707;51.158;17.124;2022-08-01T05:37:41;13.85;;;5.83;;
33347;SDS011;19707;51.158;17.124;2022-08-01T05:40:42;9.30;;;5.58;;
33347;SDS011;19707;51.158;17.124;2022-08-01T05:43:43;10.72;;;6.75;;
33347;SDS011;19707;51.158;17.124;2022-08-01T05:46:44;10.03;;;6.28;;
33347;SDS011;19707;51.158;17.124;2022-08-01T05:49:46;13.55;;;6.78;;
33347;SDS011;19707;51.158;17.124;2022-08-01T05:52:48;5.80;;;4.97;;
33347;SDS011;19707;51.158;17.124;2022-08-01T05:55:49;6.97;;;5.62;;
33347;SDS011;19707;51.158;17.124;2022-08-01T05:58:50;7.05;;;5.50;;
33347;SDS011;19707;51.158;17.124;2022-08-01T06:01:52;9.23;;;5.47;;
33347;SDS011;19707;51.158;17.124;2022-08-01T06:04:54;8.23;;;5.70;;
33347;SDS011;19707;51.158;17.124;2022-08-01T06:07:56;8.93;;;5.70;;
33347;SDS011;19707;51.158;17.124;2022-08-01T06:10:58;8.58;;;6.10;;
33347;SDS011;19707;51.158;17.124;2022-08-01T06:14:00;9.75;;;5.70;;
33347;SDS011;19707;51.158;17.124;2022-08-01T06:17:01;13.48;;;5.67;;
33347;SDS011;19707;51.158;17.124;2022-08-01T06:20:02;6.50;;;5.67;;
33347;SDS011;19707;51.158;17.124;2022-08-01T06:23:06;11.45;;;6.08;;
33347;SDS011;19707;51.158;17.124;2022-08-01T06:26:08;13.20;;;5.95;;
33347;SDS011;19707;51.158;17.124;2022-08-01T06:29:10;12.40;;;5.90;;
33347;SDS011;19707;51.158;17.124;2022-08-01T06:32:11;10.95;;;6.53;;
33347;SDS011;19707;51.158;17.124;2022-08-01T06:35:15;14.00;;;6.12;;
33347;SDS011;19707;51.158;17.124;2022-08-01T06:38:18;19.12;;;7.03;;
33347;SDS011;19707;51.158;17.124;2022-08-01T06:41:20;11.15;;;6.50;;
33347;SDS011;19707;51.158;17.124;2022-08-01T06:44:21;9.90;;;6.20;;
33347;SDS011;19707;51.158;17.124;2022-08-01T06:47:22;16.73;;;7.20;;
33347;SDS011;19707;51.158;17.124;2022-08-01T06:50:23;14.05;;;6.47;;
33347;SDS011;19707;51.158;17.124;2022-08-01T06:53:25;11.90;;;6.78;;
33347;SDS011;19707;51.158;17.124;2022-08-01T06:56:26;13.53;;;6.12;;
33347;SDS011;19707;51.158;17.124;2022-08-01T06:59:27;10.68;;;6.37;;
33347;SDS011;19707;51.158;17.124;2022-08-01T07:02:29;23.60;;;7.22;;
33347;SDS011;19707;51.158;17.124;2022-08-01T07:05:30;11.50;;;5.85;;
33347;SDS011;19707;51.158;17.124;2022-08-01T07:08:31;7.30;;;5.95;;
33347;SDS011;19707;51.158;17.124;2022-08-01T07:11:33;13.35;;;5.37;;
33347;SDS011;19707;51.158;17.124;2022-08-01T07:14:34;15.50;;;6.40;;
33347;SDS011;19707;51.158;17.124;2022-08-01T07:17:36;13.43;;;6.15;;
33347;SDS011;19707;51.158;17.124;2022-08-01T07:20:42;12.78;;;5.42;;
33347;SDS011;19707;51.158;17.124;2022-08-01T07:23:43;9.73;;;4.72;;
33347;SDS011;19707;51.158;17.124;2022-08-01T07:26:46;7.12;;;5.10;;
33347;SDS011;19707;51.158;17.124;2022-08-01T07:29:50;6.35;;;4.92;;
33347;SDS011;19707;51.158;17.124;2022-08-01T07:32:51;6.92;;;4.10;;
33347;SDS011;19707;51.158;17.124;2022-08-01T07:35:52;11.50;;;4.75;;
33347;SDS011;19707;51.158;17.124;2022-08-01T07:38:54;6.85;;;4.25;;
33347;SDS011;19707;51.158;17.124;2022-08-01T07:41:56;6.10;;;4.45;;
33347;SDS011;19707;51.158;17.124;2022-08-01T07:44:58;4.53;;;4.10;;
33347;SDS011;19707;51.158;17.124;2022-08-01T07:48:04;7.80;;;4.15;;
33347;SDS011;19707;51.158;17.124;2022-08-01T07:51:06;7.40;;;3.83;;
33347;SDS011;19707;51.158;17.124;2022-08-01T07:54:08;10.98;;;4.53;;
33347;SDS011;19707;51.158;17.124;2022-08-01T07:57:10;10.10;;;4.70;;
33347;SDS011;19707;51.158;17.124;2022-08-01T08:00:11;4.58;;;3.58;;
33347;SDS011;19707;51.158;17.124;2022-08-01T08:03:14;6.67;;;4.53;;
33347;SDS011;19707;51.158;17.124;2022-08-01T08:06:15;5.87;;;3.62;;
33347;SDS011;19707;51.158;17.124;2022-08-01T08:09:17;4.70;;;3.85;;
33347;SDS011;19707;51.158;17.124;2022-08-01T08:12:18;6.00;;;4.30;;
33347;SDS011;19707;51.158;17.124;2022-08-01T08:15:24;3.90;;;3.52;;
33347;SDS011;19707;51.158;17.124;2022-08-01T08:18:30;6.85;;;4.22;;
33347;SDS011;19707;51.158;17.124;2022-08-01T08:21:33;5.40;;;3.80;;
33347;SDS011;19707;51.158;17.124;2022-08-01T08:24:35;6.03;;;4.00;;
33347;SDS011;19707;51.158;17.124;2022-08-01T08:27:37;8.98;;;3.95;;
33347;SDS011;19707;51.158;17.124;2022-08-01T08:30:39;4.17;;;3.77;;
33347;SDS011;19707;51.158;17.124;2022-08-01T08:33:41;4.55;;;3.22;;
33347;SDS011;19707;51.158;17.124;2022-08-01T08:36:43;4.08;;;3.52;;
33347;SDS011;19707;51.158;17.124;2022-08-01T08:39:44;6.58;;;3.67;;
33347;SDS011;19707;51.158;17.124;2022-08-01T08:42:46;5.92;;;3.87;;
33347;SDS011;19707;51.158;17.124;2022-08-01T08:45:48;4.03;;;3.65;;
33347;SDS011;19707;51.158;17.124;2022-08-01T08:48:51;5.80;;;3.85;;
33347;SDS011;19707;51.158;17.124;2022-08-01T08:51:53;5.67;;;3.90;;
33347;SDS011;19707;51.158;17.124;2022-08-01T08:54:59;3.83;;;3.47;;
33347;SDS011;19707;51.158;17.124;2022-08-01T08:58:01;3.95;;;3.62;;
33347;SDS011;19707;51.158;17.124;2022-08-01T09:01:05;4.78;;;3.60;;
33347;SDS011;19707;51.158;17.124;2022-08-01T09:04:09;3.60;;;3.12;;
33347;SDS011;19707;51.158;17.124;2022-08-01T09:07:12;6.95;;;3.17;;
33347;SDS011;19707;51.158;17.124;2022-08-01T09:10:14;5.40;;;3.20;;
33347;SDS011;19707;51.158;17.124;2022-08-01T09:13:16;4.92;;;3.75;;
33347;SDS011;19707;51.158;17.124;2022-08-01T09:16:18;4.37;;;3.95;;
33347;SDS011;19707;51.158;17.124;2022-08-01T09:19:19;3.05;;;2.27;;
33347;SDS011;19707;51.158;17.124;2022-08-01T09:22:23;6.62;;;3.98;;
33347;SDS011;19707;51.158;17.124;2022-08-01T09:25:25;3.92;;;3.55;;
33347;SDS011;19707;51.158;17.124;2022-08-01T09:28:29;5.43;;;2.90;;
33347;SDS011;19707;51.158;17.124;2022-08-01T09:31:39;5.05;;;3.60;;
33347;SDS011;19707;51.158;17.124;2022-08-01T09:34:44;3.55;;;3.10;;
33347;SDS011;19707;51.158;17.124;2022-08-01T09:37:47;3.50;;;3.20;;
33347;SDS011;19707;51.158;17.124;2022-08-01T09:43:57;5.05;;;3.12;;
33347;SDS011;19707;51.158;17.124;2022-08-01T09:46:59;7.72;;;3.55;;
33347;SDS011;19707;51.158;17.124;2022-08-01T09:50:01;4.30;;;3.27;;
33347;SDS011;19707;51.158;17.124;2022-08-01T09:53:02;3.25;;;2.60;;
33347;SDS011;19707;51.158;17.124;2022-08-01T09:56:10;5.97;;;3.17;;
33347;SDS011;19707;51.158;17.124;2022-08-01T09:59:12;3.58;;;3.27;;
33347;SDS011;19707;51.158;17.124;2022-08-01T10:02:14;4.00;;;2.90;;
33347;SDS011;19707;51.158;17.124;2022-08-01T10:05:35;2.45;;;1.67;;
33347;SDS011;19707;51.158;17.124;2022-08-01T10:08:47;4.92;;;2.45;;
33347;SDS011;19707;51.158;17.124;2022-08-01T10:11:49;3.22;;;2.83;;
33347;SDS011;19707;51.158;17.124;2022-08-01T10:14:50;4.03;;;3.25;;
33347;SDS011;19707;51.158;17.124;2022-08-01T10:20:58;3.67;;;3.37;;
33347;SDS011;19707;51.158;17.124;2022-08-01T10:24:02;5.62;;;2.67;;
33347;SDS011;19707;51.158;17.124;2022-08-01T10:27:05;4.50;;;2.98;;
33347;SDS011;19707;51.158;17.124;2022-08-01T10:30:09;4.53;;;3.90;;
33347;SDS011;19707;51.158;17.124;2022-08-01T10:33:11;3.05;;;2.85;;
33347;SDS011;19707;51.158;17.124;2022-08-01T10:36:14;3.98;;;2.65;;
33347;SDS011;19707;51.158;17.124;2022-08-01T10:39:22;2.87;;;2.58;;
33347;SDS011;19707;51.158;17.124;2022-08-01T10:42:23;2.45;;;1.85;;
33347;SDS011;19707;51.158;17.124;2022-08-01T10:45:25;3.90;;;2.92;;
33347;SDS011;19707;51.158;17.124;2022-08-01T10:51:35;3.47;;;3.17;;
33347;SDS011;19707;51.158;17.124;2022-08-01T10:54:40;2.00;;;0.98;;
33347;SDS011;19707;51.158;17.124;2022-08-01T10:57:45;4.12;;;2.10;;
33347;SDS011;19707;51.158;17.124;2022-08-01T11:00:48;3.08;;;2.33;;
33347;SDS011;19707;51.158;17.124;2022-08-01T11:07:13;3.70;;;2.70;;
33347;SDS011;19707;51.158;17.124;2022-08-01T11:20:57;2.58;;;2.37;;
33347;SDS011;19707;51.158;17.124;2022-08-01T11:24:01;2.60;;;2.40;;
33347;SDS011;19707;51.158;17.124;2022-08-01T11:30:23;2.83;;;2.50;;
33347;SDS011;19707;51.158;17.124;2022-08-01T11:36:45;2.65;;;2.45;;
33347;SDS011;19707;51.158;17.124;2022-08-01T11:40:13;2.70;;;2.50;;
33347;SDS011;19707;51.158;17.124;2022-08-01T11:46:17;5.47;;;2.85;;
33347;SDS011;19707;51.158;17.124;2022-08-01T11:52:34;4.70;;;2.95;;
33347;SDS011;19707;51.158;17.124;2022-08-01T11:55:37;5.75;;;2.52;;
33347;SDS011;19707;51.158;17.124;2022-08-01T11:58:38;3.10;;;2.83;;
33347;SDS011;19707;51.158;17.124;2022-08-01T12:01:40;4.42;;;3.17;;
33347;SDS011;19707;51.158;17.124;2022-08-01T12:08:03;2.00;;;1.85;;
33347;SDS011;19707;51.158;17.124;2022-08-01T12:11:07;4.08;;;2.67;;
33347;SDS011;19707;51.158;17.124;2022-08-01T12:14:09;5.65;;;3.08;;
33347;SDS011;19707;51.158;17.124;2022-08-01T12:17:11;4.28;;;2.47;;
33347;SDS011;19707;51.158;17.124;2022-08-01T12:20:20;3.92;;;2.83;;
33347;SDS011;19707;51.158;17.124;2022-08-01T12:23:23;4.65;;;2.20;;
33347;SDS011;19707;51.158;17.124;2022-08-01T12:26:43;2.85;;;2.37;;
33347;SDS011;19707;51.158;17.124;2022-08-01T12:29:57;2.98;;;2.12;;
33347;SDS011;19707;51.158;17.124;2022-08-01T12:33:04;6.78;;;2.50;;
33347;SDS011;19707;51.158;17.124;2022-08-01T12:36:13;9.23;;;5.65;;
33347;SDS011;19707;51.158;17.124;2022-08-01T12:39:14;4.35;;;3.10;;
33347;SDS011;19707;51.158;17.124;2022-08-01T12:42:15;2.65;;;2.20;;
33347;SDS011;19707;51.158;17.124;2022-08-01T12:45:18;4.72;;;2.90;;
33347;SDS011;19707;51.158;17.124;2022-08-01T12:48:28;3.58;;;3.17;;
33347;SDS011;19707;51.158;17.124;2022-08-01T12:51:31;7.50;;;3.58;;
33347;SDS011;19707;51.158;17.124;2022-08-01T12:54:59;3.60;;;2.52;;
33347;SDS011;19707;51.158;17.124;2022-08-01T12:58:13;8.38;;;2.70;;
33347;SDS011;19707;51.158;17.124;2022-08-01T13:01:24;6.25;;;3.65;;
33347;SDS011;19707;51.158;17.124;2022-08-01T13:04:25;4.40;;;2.42;;
33347;SDS011;19707;51.158;17.124;2022-08-01T13:10:49;5.95;;;2.65;;
33347;SDS011;19707;51.158;17.124;2022-08-01T13:13:53;3.20;;;3.00;;
33347;SDS011;19707;51.158;17.124;2022-08-01T13:16:55;4.78;;;3.10;;
33347;SDS011;19707;51.158;17.124;2022-08-01T13:19:56;5.00;;;3.10;;
33347;SDS011;19707;51.158;17.124;2022-08-01T13:23:10;6.78;;;3.42;;
33347;SDS011;19707;51.158;17.124;2022-08-01T13:26:18;3.33;;;3.00;;
33347;SDS011;19707;51.158;17.124;2022-08-01T13:29:20;3.20;;;2.83;;
33347;SDS011;19707;51.158;17.124;2022-08-01T13:32:25;3.27;;;2.98;;
33347;SDS011;19707;51.158;17.124;2022-08-01T13:35:26;6.28;;;3.12;;
33347;SDS011;19707;51.158;17.124;2022-08-01T13:38:28;5.90;;;2.77;;
33347;SDS011;19707;51.158;17.124;2022-08-01T13:41:49;2.75;;;2.55;;
33347;SDS011;19707;51.158;17.124;2022-08-01T13:44:54;4.47;;;3.72;;
33347;SDS011;19707;51.158;17.124;2022-08-01T13:47:55;3.10;;;2.77;;
33347;SDS011;19707;51.158;17.124;2022-08-01T13:50:56;4.00;;;3.70;;
33347;SDS011;19707;51.158;17.124;2022-08-01T13:53:57;4.62;;;3.72;;
33347;SDS011;19707;51.158;17.124;2022-08-01T13:56:59;3.05;;;2.50;;
33347;SDS011;19707;51.158;17.124;2022-08-01T14:00:01;2.72;;;2.52;;
33347;SDS011;19707;51.158;17.124;2022-08-01T14:03:09;2.98;;;1.67;;
33347;SDS011;19707;51.158;17.124;2022-08-01T14:06:11;1.12;;;1.02;;
33347;SDS011;19707;51.158;17.124;2022-08-01T14:09:13;2.67;;;1.75;;
33347;SDS011;19707;51.158;17.124;2022-08-01T14:12:16;2.83;;;2.62;;
33347;SDS011;19707;51.158;17.124;2022-08-01T14:15:17;2.20;;;1.95;;
33347;SDS011;19707;51.158;17.124;2022-08-01T14:18:19;3.25;;;2.95;;
33347;SDS011;19707;51.158;17.124;2022-08-01T14:21:21;4.33;;;2.90;;
33347;SDS011;19707;51.158;17.124;2022-08-01T14:24:23;2.47;;;2.27;;
33347;SDS011;19707;51.158;17.124;2022-08-01T14:27:26;1.82;;;1.60;;
33347;SDS011;19707;51.158;17.124;2022-08-01T14:30:29;2.80;;;2.60;;
33347;SDS011;19707;51.158;17.124;2022-08-01T14:33:31;2.35;;;2.15;;
33347;SDS011;19707;51.158;17.124;2022-08-01T14:36:33;2.83;;;1.77;;
33347;SDS011;19707;51.158;17.124;2022-08-01T14:39:34;2.52;;;2.33;;
33347;SDS011;19707;51.158;17.124;2022-08-01T14:42:36;2.72;;;2.52;;
33347;SDS011;19707;51.158;17.124;2022-08-01T14:45:39;2.75;;;2.55;;
33347;SDS011;19707;51.158;17.124;2022-08-01T14:48:40;2.33;;;2.20;;
33347;SDS011;19707;51.158;17.124;2022-08-01T14:51:42;2.92;;;2.70;;
33347;SDS011;19707;51.158;17.124;2022-08-01T14:54:43;1.60;;;1.25;;
33347;SDS011;19707;51.158;17.124;2022-08-01T14:57:44;3.30;;;2.72;;
33347;SDS011;19707;51.158;17.124;2022-08-01T15:00:45;2.00;;;1.90;;
33347;SDS011;19707;51.158;17.124;2022-08-01T15:03:47;2.62;;;2.20;;
33347;SDS011;19707;51.158;17.124;2022-08-01T15:06:50;3.17;;;1.10;;
33347;SDS011;19707;51.158;17.124;2022-08-01T15:09:52;1.85;;;1.70;;
33347;SDS011;19707;51.158;17.124;2022-08-01T15:12:53;2.35;;;1.85;;
33347;SDS011;19707;51.158;17.124;2022-08-01T15:15:56;2.33;;;1.65;;
33347;SDS011;19707;51.158;17.124;2022-08-01T15:18:58;1.30;;;1.20;;
33347;SDS011;19707;51.158;17.124;2022-08-01T15:21:59;1.60;;;1.50;;
33347;SDS011;19707;51.158;17.124;2022-08-01T15:25:00;2.27;;;2.10;;
33347;SDS011;19707;51.158;17.124;2022-08-01T15:28:03;1.62;;;1.20;;
33347;SDS011;19707;51.158;17.124;2022-08-01T15:31:04;1.30;;;1.20;;
33347;SDS011;19707;51.158;17.124;2022-08-01T15:34:05;1.82;;;1.72;;
33347;SDS011;19707;51.158;17.124;2022-08-01T15:37:07;2.92;;;2.20;;
33347;SDS011;19707;51.158;17.124;2022-08-01T15:40:09;2.35;;;2.20;;
33347;SDS011;19707;51.158;17.124;2022-08-01T15:43:11;2.58;;;1.77;;
33347;SDS011;19707;51.158;17.124;2022-08-01T15:46:13;1.55;;;1.45;;
33347;SDS011;19707;51.158;17.124;2022-08-01T15:49:15;2.17;;;1.80;;
33347;SDS011;19707;51.158;17.124;2022-08-01T15:52:17;1.75;;;1.50;;
33347;SDS011;19707;51.158;17.124;2022-08-01T15:55:18;1.55;;;1.40;;
33347;SDS011;19707;51.158;17.124;2022-08-01T15:58:20;2.37;;;1.30;;
33347;SDS011;19707;51.158;17.124;2022-08-01T16:01:21;3.10;;;1.27;;
33347;SDS011;19707;51.158;17.124;2022-08-01T16:04:22;1.30;;;1.20;;
33347;SDS011;19707;51.158;17.124;2022-08-01T16:07:24;2.62;;;1.52;;
33347;SDS011;19707;51.158;17.124;2022-08-01T16:10:25;1.15;;;0.98;;
33347;SDS011;19707;51.158;17.124;2022-08-01T16:13:28;1.05;;;0.95;;
33347;SDS011;19707;51.158;17.124;2022-08-01T16:16:29;4.15;;;0.82;;
33347;SDS011;19707;51.158;17.124;2022-08-01T16:19:31;2.52;;;0.95;;
33347;SDS011;19707;51.158;17.124;2022-08-01T16:22:32;1.07;;;1.00;;
33347;SDS011;19707;51.158;17.124;2022-08-01T16:25:35;3.60;;;0.90;;
33347;SDS011;19707;51.158;17.124;2022-08-01T16:28:36;1.22;;;1.12;;
33347;SDS011;19707;51.158;17.124;2022-08-01T16:31:37;4.95;;;1.00;;
33347;SDS011;19707;51.158;17.124;2022-08-01T16:34:39;1.05;;;0.90;;
33347;SDS011;19707;51.158;17.124;2022-08-01T16:37:40;1.00;;;0.95;;
33347;SDS011;19707;51.158;17.124;2022-08-01T16:40:41;1.17;;;1.07;;
33347;SDS011;19707;51.158;17.124;2022-08-01T16:43:43;1.30;;;1.20;;
33347;SDS011;19707;51.158;17.124;2022-08-01T16:46:44;1.12;;;1.12;;
33347;SDS011;19707;51.158;17.124;2022-08-01T16:49:45;2.17;;;1.15;;
33347;SDS011;19707;51.158;17.124;2022-08-01T16:52:47;2.67;;;1.12;;
33347;SDS011;19707;51.158;17.124;2022-08-01T16:55:49;2.65;;;1.20;;
33347;SDS011;19707;51.158;17.124;2022-08-01T16:58:51;0.88;;;0.78;;
33347;SDS011;19707;51.158;17.124;2022-08-01T17:01:52;2.67;;;0.80;;
33347;SDS011;19707;51.158;17.124;2022-08-01T17:04:54;1.85;;;0.93;;
33347;SDS011;19707;51.158;17.124;2022-08-01T17:07:55;1.60;;;1.25;;
33347;SDS011;19707;51.158;17.124;2022-08-01T17:10:56;0.98;;;0.75;;
33347;SDS011;19707;51.158;17.124;2022-08-01T17:13:58;2.58;;;1.07;;
33347;SDS011;19707;51.158;17.124;2022-08-01T17:16:59;0.88;;;0.85;;
33347;SDS011;19707;51.158;17.124;2022-08-01T17:20:00;0.70;;;0.70;;
33347;SDS011;19707;51.158;17.124;2022-08-01T17:23:02;1.12;;;1.10;;
33347;SDS011;19707;51.158;17.124;2022-08-01T17:26:04;0.80;;;0.80;;
33347;SDS011;19707;51.158;17.124;2022-08-01T17:29:06;1.42;;;1.27;;
33347;SDS011;19707;51.158;17.124;2022-08-01T17:32:11;6.75;;;1.20;;
33347;SDS011;19707;51.158;17.124;2022-08-01T17:35:14;3.37;;;1.95;;
33347;SDS011;19707;51.158;17.124;2022-08-01T17:38:16;1.30;;;1.17;;
33347;SDS011;19707;51.158;17.124;2022-08-01T17:41:19;2.27;;;1.20;;
33347;SDS011;19707;51.158;17.124;2022-08-01T17:44:21;2.45;;;1.15;;
33347;SDS011;19707;51.158;17.124;2022-08-01T17:47:26;1.32;;;1.22;;
33347;SDS011;19707;51.158;17.124;2022-08-01T17:50:25;1.67;;;1.57;;
33347;SDS011;19707;51.158;17.124;2022-08-01T17:53:26;1.47;;;1.37;;
33347;SDS011;19707;51.158;17.124;2022-08-01T17:56:28;2.83;;;2.20;;
33347;SDS011;19707;51.158;17.124;2022-08-01T17:59:32;2.00;;;1.90;;
33347;SDS011;19707;51.158;17.124;2022-08-01T18:02:33;1.92;;;1.82;;
33347;SDS011;19707;51.158;17.124;2022-08-01T18:05:35;1.22;;;1.10;;
33347;SDS011;19707;51.158;17.124;2022-08-01T18:08:38;3.08;;;1.70;;
33347;SDS011;19707;51.158;17.124;2022-08-01T18:11:41;1.82;;;1.67;;
33347;SDS011;19707;51.158;17.124;2022-08-01T18:14:43;2.58;;;1.87;;
33347;SDS011;19707;51.158;17.124;2022-08-01T18:17:45;2.40;;;1.85;;
33347;SDS011;19707;51.158;17.124;2022-08-01T18:20:47;2.22;;;1.80;;
33347;SDS011;19707;51.158;17.124;2022-08-01T18:23:49;2.90;;;2.47;;
33347;SDS011;19707;51.158;17.124;2022-08-01T18:26:51;2.58;;;2.30;;
33347;SDS011;19707;51.158;17.124;2022-08-01T18:29:54;2.05;;;1.80;;
33347;SDS011;19707;51.158;17.124;2022-08-01T18:32:56;2.10;;;1.90;;
33347;SDS011;19707;51.158;17.124;2022-08-01T18:35:59;4.17;;;2.10;;
33347;SDS011;19707;51.158;17.124;2022-08-01T18:39:05;2.02;;;1.92;;
33347;SDS011;19707;51.158;17.124;2022-08-01T18:42:09;2.75;;;2.15;;
33347;SDS011;19707;51.158;17.124;2022-08-01T18:45:10;4.33;;;2.33;;
33347;SDS011;19707;51.158;17.124;2022-08-01T18:48:13;2.45;;;2.25;;
33347;SDS011;19707;51.158;17.124;2022-08-01T18:51:15;2.20;;;2.10;;
33347;SDS011;19707;51.158;17.124;2022-08-01T18:54:17;5.00;;;2.42;;
33347;SDS011;19707;51.158;17.124;2022-08-01T18:57:19;2.12;;;2.00;;
33347;SDS011;19707;51.158;17.124;2022-08-01T19:00:22;2.33;;;2.12;;
33347;SDS011;19707;51.158;17.124;2022-08-01T19:03:24;2.05;;;1.85;;
33347;SDS011;19707;51.158;17.124;2022-08-01T19:06:27;3.20;;;2.00;;
33347;SDS011;19707;51.158;17.124;2022-08-01T19:09:31;3.25;;;2.08;;
33347;SDS011;19707;51.158;17.124;2022-08-01T19:12:34;2.40;;;2.20;;
33347;SDS011;19707;51.158;17.124;2022-08-01T19:15:37;2.05;;;1.87;;